sensor_id;sensor_type;location;lat;lon;timestamp;temperature;humidity
33793;DHT22;20105;48.764;9.178;2022-08-20T00:00:44;20.80;99.90
33793;DHT22;20105;48.764;9.178;2022-08-20T00:03:15;20.90;99.90
33793;DHT22;20105;48.764;9.178;2022-08-20T00:05:45;20.90;99.90
33793;DHT22;20105;48.764;9.178;2022-08-20T00:08:11;20.80;99.90
33793;DHT22;20105;48.764;9.178;2022-08-20T00:10:39;20.80;99.90
33793;DHT22;20105;48.764;9.178;2022-08-20T00:13:06;20.80;99.90
33793;DHT22;20105;48.764;9.178;2022-08-20T00:15:34;20.70;99.90
33793;DHT22;20105;48.764;9.178;2022-08-20T00:18:04;20.60;99.90
33793;DHT22;20105;48.764;9.178;2022-08-20T00:20:33;20.50;99.90
33793;DHT22;20105;48.764;9.178;2022-08-20T00:23:00;20.40;99.90
33793;DHT22;20105;48.764;9.178;2022-08-20T00:25:28;20.40;99.90
33793;DHT22;20105;48.764;9.178;2022-08-20T00:27:55;20.40;99.90
33793;DHT22;20105;48.764;9.178;2022-08-20T00:30:22;20.30;99.90
33793;DHT22;20105;48.764;9.178;2022-08-20T00:33:00;20.30;99.90
33793;DHT22;20105;48.764;9.178;2022-08-20T00:35:29;20.20;99.90
33793;DHT22;20105;48.764;9.178;2022-08-20T00:37:55;20.20;99.90
33793;DHT22;20105;48.764;9.178;2022-08-20T00:40:31;20.20;99.90
33793;DHT22;20105;48.764;9.178;2022-08-20T00:43:01;20.20;99.90
33793;DHT22;20105;48.764;9.178;2022-08-20T00:45:31;20.20;99.90
33793;DHT22;20105;48.764;9.178;2022-08-20T00:47:57;20.30;99.90
33793;DHT22;20105;48.764;9.178;2022-08-20T00:50:31;20.30;99.90
33793;DHT22;20105;48.764;9.178;2022-08-20T00:52:59;20.30;99.90
33793;DHT22;20105;48.764;9.178;2022-08-20T00:55:27;20.30;99.90
33793;DHT22;20105;48.764;9.178;2022-08-20T00:57:56;20.30;99.90
33793;DHT22;20105;48.764;9.178;2022-08-20T01:00:32;20.30;99.90
33793;DHT22;20105;48.764;9.178;2022-08-20T01:02:59;20.30;99.90
33793;DHT22;20105;48.764;9.178;2022-08-20T01:05:25;20.30;99.90
33793;DHT22;20105;48.764;9.178;2022-08-20T01:07:52;20.40;99.90
33793;DHT22;20105;48.764;9.178;2022-08-20T01:10:24;20.40;99.90
33793;DHT22;20105;48.764;9.178;2022-08-20T01:12:51;20.40;99.90
33793;DHT22;20105;48.764;9.178;2022-08-20T01:15:20;20.40;99.90
33793;DHT22;20105;48.764;9.178;2022-08-20T01:17:50;20.40;99.90
33793;DHT22;20105;48.764;9.178;2022-08-20T01:20:32;20.40;99.90
33793;DHT22;20105;48.764;9.178;2022-08-20T01:23:15;20.40;99.90
33793;DHT22;20105;48.764;9.178;2022-08-20T01:26:13;20.50;99.90
33793;DHT22;20105;48.764;9.178;2022-08-20T01:29:00;20.40;99.90
33793;DHT22;20105;48.764;9.178;2022-08-20T01:31:34;20.40;99.90
33793;DHT22;20105;48.764;9.178;2022-08-20T01:34:02;20.30;99.90
33793;DHT22;20105;48.764;9.178;2022-08-20T01:36:35;20.30;99.90
33793;DHT22;20105;48.764;9.178;2022-08-20T01:39:03;20.30;99.90
33793;DHT22;20105;48.764;9.178;2022-08-20T01:41:50;20.30;99.90
33793;DHT22;20105;48.764;9.178;2022-08-20T01:44:18;20.30;99.90
33793;DHT22;20105;48.764;9.178;2022-08-20T01:46:46;20.30;99.90
33793;DHT22;20105;48.764;9.178;2022-08-20T01:49:21;20.30;99.90
33793;DHT22;20105;48.764;9.178;2022-08-20T01:51:48;20.30;99.90
33793;DHT22;20105;48.764;9.178;2022-08-20T01:54:15;20.30;99.90
33793;DHT22;20105;48.764;9.178;2022-08-20T01:57:00;20.40;99.90
33793;DHT22;20105;48.764;9.178;2022-08-20T01:59:27;20.40;99.90
33793;DHT22;20105;48.764;9.178;2022-08-20T02:01:53;20.40;99.90
33793;DHT22;20105;48.764;9.178;2022-08-20T02:04:19;20.30;99.90
33793;DHT22;20105;48.764;9.178;2022-08-20T02:06:50;20.30;99.90
33793;DHT22;20105;48.764;9.178;2022-08-20T02:09:17;20.30;99.90
33793;DHT22;20105;48.764;9.178;2022-08-20T02:11:43;20.30;99.90
33793;DHT22;20105;48.764;9.178;2022-08-20T02:14:11;20.30;99.90
33793;DHT22;20105;48.764;9.178;2022-08-20T02:16:38;20.30;99.90
33793;DHT22;20105;48.764;9.178;2022-08-20T02:19:11;20.30;99.90
33793;DHT22;20105;48.764;9.178;2022-08-20T02:21:42;20.30;99.90
33793;DHT22;20105;48.764;9.178;2022-08-20T02:24:09;20.30;99.90
33793;DHT22;20105;48.764;9.178;2022-08-20T02:26:35;20.30;99.90
33793;DHT22;20105;48.764;9.178;2022-08-20T02:29:04;20.30;99.90
33793;DHT22;20105;48.764;9.178;2022-08-20T02:31:30;20.20;99.90
33793;DHT22;20105;48.764;9.178;2022-08-20T02:33:55;20.20;99.90
33793;DHT22;20105;48.764;9.178;2022-08-20T02:36:21;20.20;99.90
33793;DHT22;20105;48.764;9.178;2022-08-20T02:38:47;20.20;99.90
33793;DHT22;20105;48.764;9.178;2022-08-20T02:41:12;20.20;99.90
33793;DHT22;20105;48.764;9.178;2022-08-20T02:43:39;20.20;99.90
33793;DHT22;20105;48.764;9.178;2022-08-20T02:46:06;20.20;99.90
33793;DHT22;20105;48.764;9.178;2022-08-20T02:48:32;20.20;99.90
33793;DHT22;20105;48.764;9.178;2022-08-20T02:51:04;20.20;99.90
33793;DHT22;20105;48.764;9.178;2022-08-20T02:53:32;20.20;99.90
33793;DHT22;20105;48.764;9.178;2022-08-20T02:55:58;20.30;99.90
33793;DHT22;20105;48.764;9.178;2022-08-20T02:58:25;20.20;99.90
33793;DHT22;20105;48.764;9.178;2022-08-20T03:00:51;20.20;99.90
33793;DHT22;20105;48.764;9.178;2022-08-20T03:03:16;20.20;99.90
33793;DHT22;20105;48.764;9.178;2022-08-20T03:05:47;20.20;99.90
33793;DHT22;20105;48.764;9.178;2022-08-20T03:08:13;20.20;99.90
33793;DHT22;20105;48.764;9.178;2022-08-20T03:10:40;20.10;99.90
33793;DHT22;20105;48.764;9.178;2022-08-20T03:13:07;20.10;99.90
33793;DHT22;20105;48.764;9.178;2022-08-20T03:15:39;20.10;99.90
33793;DHT22;20105;48.764;9.178;2022-08-20T03:18:05;20.10;99.90
33793;DHT22;20105;48.764;9.178;2022-08-20T03:20:31;20.00;99.90
33793;DHT22;20105;48.764;9.178;2022-08-20T03:22:57;20.00;99.90
33793;DHT22;20105;48.764;9.178;2022-08-20T03:25:23;20.00;99.90
33793;DHT22;20105;48.764;9.178;2022-08-20T03:27:48;20.00;99.90
33793;DHT22;20105;48.764;9.178;2022-08-20T03:30:15;20.00;99.90
33793;DHT22;20105;48.764;9.178;2022-08-20T03:32:41;20.00;99.90
33793;DHT22;20105;48.764;9.178;2022-08-20T03:35:10;19.90;99.90
33793;DHT22;20105;48.764;9.178;2022-08-20T03:37:36;19.90;99.90
33793;DHT22;20105;48.764;9.178;2022-08-20T03:40:05;19.90;99.90
33793;DHT22;20105;48.764;9.178;2022-08-20T03:42:31;19.90;99.90
33793;DHT22;20105;48.764;9.178;2022-08-20T03:44:56;19.90;99.90
33793;DHT22;20105;48.764;9.178;2022-08-20T03:47:22;19.90;99.90
33793;DHT22;20105;48.764;9.178;2022-08-20T03:49:48;19.90;99.90
33793;DHT22;20105;48.764;9.178;2022-08-20T03:52:14;19.90;99.90
33793;DHT22;20105;48.764;9.178;2022-08-20T03:54:42;19.90;99.90
33793;DHT22;20105;48.764;9.178;2022-08-20T03:57:12;19.90;99.90
33793;DHT22;20105;48.764;9.178;2022-08-20T03:59:39;19.90;99.90
33793;DHT22;20105;48.764;9.178;2022-08-20T04:02:05;19.90;99.90
33793;DHT22;20105;48.764;9.178;2022-08-20T04:04:31;19.90;99.90
33793;DHT22;20105;48.764;9.178;2022-08-20T04:06:56;19.90;99.90
33793;DHT22;20105;48.764;9.178;2022-08-20T04:09:22;19.90;99.90
33793;DHT22;20105;48.764;9.178;2022-08-20T04:11:48;19.90;99.90
33793;DHT22;20105;48.764;9.178;2022-08-20T04:14:14;19.90;99.90
33793;DHT22;20105;48.764;9.178;2022-08-20T04:16:39;19.90;99.90
33793;DHT22;20105;48.764;9.178;2022-08-20T04:19:06;19.90;99.90
33793;DHT22;20105;48.764;9.178;2022-08-20T04:21:34;19.90;99.90
33793;DHT22;20105;48.764;9.178;2022-08-20T04:24:01;19.80;99.90
33793;DHT22;20105;48.764;9.178;2022-08-20T04:26:27;19.80;99.90
33793;DHT22;20105;48.764;9.178;2022-08-20T04:28:53;19.80;99.90
33793;DHT22;20105;48.764;9.178;2022-08-20T04:31:20;19.80;99.90
33793;DHT22;20105;48.764;9.178;2022-08-20T04:33:45;19.80;99.90
33793;DHT22;20105;48.764;9.178;2022-08-20T04:36:11;19.80;99.90
33793;DHT22;20105;48.764;9.178;2022-08-20T04:38:38;19.80;99.90
33793;DHT22;20105;48.764;9.178;2022-08-20T04:41:04;19.80;99.90
33793;DHT22;20105;48.764;9.178;2022-08-20T04:43:34;19.70;99.90
33793;DHT22;20105;48.764;9.178;2022-08-20T04:46:07;19.70;99.90
33793;DHT22;20105;48.764;9.178;2022-08-20T04:48:38;19.70;99.90
33793;DHT22;20105;48.764;9.178;2022-08-20T04:51:06;19.70;99.90
33793;DHT22;20105;48.764;9.178;2022-08-20T04:53:32;19.70;99.90
33793;DHT22;20105;48.764;9.178;2022-08-20T04:56:00;19.70;99.90
33793;DHT22;20105;48.764;9.178;2022-08-20T04:58:32;19.70;99.90
33793;DHT22;20105;48.764;9.178;2022-08-20T05:01:01;19.70;99.90
33793;DHT22;20105;48.764;9.178;2022-08-20T05:03:28;19.70;99.90
33793;DHT22;20105;48.764;9.178;2022-08-20T05:05:54;19.70;99.90
33793;DHT22;20105;48.764;9.178;2022-08-20T05:08:22;19.70;99.90
33793;DHT22;20105;48.764;9.178;2022-08-20T05:10:49;19.70;99.90
33793;DHT22;20105;48.764;9.178;2022-08-20T05:13:15;19.70;99.90
33793;DHT22;20105;48.764;9.178;2022-08-20T05:15:41;19.70;99.90
33793;DHT22;20105;48.764;9.178;2022-08-20T05:18:08;19.70;99.90
33793;DHT22;20105;48.764;9.178;2022-08-20T05:20:38;19.80;99.90
33793;DHT22;20105;48.764;9.178;2022-08-20T05:23:06;19.80;99.90
33793;DHT22;20105;48.764;9.178;2022-08-20T05:25:32;19.80;99.90
33793;DHT22;20105;48.764;9.178;2022-08-20T05:28:00;19.70;99.90
33793;DHT22;20105;48.764;9.178;2022-08-20T05:30:28;19.70;99.90
33793;DHT22;20105;48.764;9.178;2022-08-20T05:32:59;19.70;99.90
33793;DHT22;20105;48.764;9.178;2022-08-20T05:35:25;19.60;99.90
33793;DHT22;20105;48.764;9.178;2022-08-20T05:37:52;19.60;99.90
33793;DHT22;20105;48.764;9.178;2022-08-20T05:40:19;19.60;99.90
33793;DHT22;20105;48.764;9.178;2022-08-20T05:42:49;19.60;99.90
33793;DHT22;20105;48.764;9.178;2022-08-20T05:45:14;19.60;99.90
33793;DHT22;20105;48.764;9.178;2022-08-20T05:47:42;19.60;99.90
33793;DHT22;20105;48.764;9.178;2022-08-20T05:50:11;19.60;99.90
33793;DHT22;20105;48.764;9.178;2022-08-20T05:52:38;19.60;99.90
33793;DHT22;20105;48.764;9.178;2022-08-20T05:55:06;19.70;99.90
33793;DHT22;20105;48.764;9.178;2022-08-20T05:57:32;19.70;99.90
33793;DHT22;20105;48.764;9.178;2022-08-20T06:00:00;19.80;99.90
33793;DHT22;20105;48.764;9.178;2022-08-20T06:02:29;19.90;99.90
33793;DHT22;20105;48.764;9.178;2022-08-20T06:05:15;19.90;99.90
33793;DHT22;20105;48.764;9.178;2022-08-20T06:07:40;20.10;99.90
33793;DHT22;20105;48.764;9.178;2022-08-20T06:10:07;20.20;99.90
33793;DHT22;20105;48.764;9.178;2022-08-20T06:12:35;20.30;99.90
33793;DHT22;20105;48.764;9.178;2022-08-20T06:15:02;20.40;99.90
33793;DHT22;20105;48.764;9.178;2022-08-20T06:17:29;20.40;99.90
33793;DHT22;20105;48.764;9.178;2022-08-20T06:19:58;20.60;99.90
33793;DHT22;20105;48.764;9.178;2022-08-20T06:22:25;20.70;99.90
33793;DHT22;20105;48.764;9.178;2022-08-20T06:24:51;20.80;99.90
33793;DHT22;20105;48.764;9.178;2022-08-20T06:27:17;20.80;99.90
33793;DHT22;20105;48.764;9.178;2022-08-20T06:29:43;20.90;99.90
33793;DHT22;20105;48.764;9.178;2022-08-20T06:32:09;20.90;99.90
33793;DHT22;20105;48.764;9.178;2022-08-20T06:34:35;20.70;99.90
33793;DHT22;20105;48.764;9.178;2022-08-20T06:37:01;20.70;99.90
33793;DHT22;20105;48.764;9.178;2022-08-20T06:39:27;20.70;99.90
33793;DHT22;20105;48.764;9.178;2022-08-20T06:41:55;20.60;99.90
33793;DHT22;20105;48.764;9.178;2022-08-20T06:44:23;20.70;99.90
33793;DHT22;20105;48.764;9.178;2022-08-20T06:46:48;20.80;99.90
33793;DHT22;20105;48.764;9.178;2022-08-20T06:49:14;21.00;99.90
33793;DHT22;20105;48.764;9.178;2022-08-20T06:51:39;21.10;99.90
33793;DHT22;20105;48.764;9.178;2022-08-20T06:54:06;20.90;99.90
33793;DHT22;20105;48.764;9.178;2022-08-20T06:56:32;21.00;99.90
33793;DHT22;20105;48.764;9.178;2022-08-20T06:58:59;20.90;99.90
33793;DHT22;20105;48.764;9.178;2022-08-20T07:01:24;20.80;99.90
33793;DHT22;20105;48.764;9.178;2022-08-20T07:03:50;20.80;99.90
33793;DHT22;20105;48.764;9.178;2022-08-20T07:06:16;20.90;99.90
33793;DHT22;20105;48.764;9.178;2022-08-20T07:08:42;20.90;99.90
33793;DHT22;20105;48.764;9.178;2022-08-20T07:11:09;21.00;99.90
33793;DHT22;20105;48.764;9.178;2022-08-20T07:13:35;21.00;99.90
33793;DHT22;20105;48.764;9.178;2022-08-20T07:16:03;21.00;99.90
33793;DHT22;20105;48.764;9.178;2022-08-20T07:18:29;20.90;99.90
33793;DHT22;20105;48.764;9.178;2022-08-20T07:20:55;20.90;99.90
33793;DHT22;20105;48.764;9.178;2022-08-20T07:23:22;20.80;99.90
33793;DHT22;20105;48.764;9.178;2022-08-20T07:25:48;20.80;99.90
33793;DHT22;20105;48.764;9.178;2022-08-20T07:28:18;21.00;99.90
33793;DHT22;20105;48.764;9.178;2022-08-20T07:30:44;21.10;99.90
33793;DHT22;20105;48.764;9.178;2022-08-20T07:33:30;21.30;99.90
33793;DHT22;20105;48.764;9.178;2022-08-20T07:36:01;21.50;99.90
33793;DHT22;20105;48.764;9.178;2022-08-20T07:38:29;21.60;99.90
33793;DHT22;20105;48.764;9.178;2022-08-20T07:40:58;21.60;99.90
33793;DHT22;20105;48.764;9.178;2022-08-20T07:43:24;21.80;99.90
33793;DHT22;20105;48.764;9.178;2022-08-20T07:45:51;21.80;99.90
33793;DHT22;20105;48.764;9.178;2022-08-20T07:48:19;21.80;99.90
33793;DHT22;20105;48.764;9.178;2022-08-20T07:50:44;21.90;99.90
33793;DHT22;20105;48.764;9.178;2022-08-20T07:53:11;21.90;99.90
33793;DHT22;20105;48.764;9.178;2022-08-20T07:55:37;21.90;99.90
33793;DHT22;20105;48.764;9.178;2022-08-20T07:58:11;22.10;99.90
33793;DHT22;20105;48.764;9.178;2022-08-20T08:00:37;22.40;99.90
33793;DHT22;20105;48.764;9.178;2022-08-20T08:03:03;22.50;99.90
33793;DHT22;20105;48.764;9.178;2022-08-20T08:05:30;22.40;99.90
33793;DHT22;20105;48.764;9.178;2022-08-20T08:07:57;22.70;99.90
33793;DHT22;20105;48.764;9.178;2022-08-20T08:10:23;22.70;99.90
33793;DHT22;20105;48.764;9.178;2022-08-20T08:12:52;22.80;99.90
33793;DHT22;20105;48.764;9.178;2022-08-20T08:15:22;22.80;99.90
33793;DHT22;20105;48.764;9.178;2022-08-20T08:17:51;22.50;99.90
33793;DHT22;20105;48.764;9.178;2022-08-20T08:20:17;22.40;99.90
33793;DHT22;20105;48.764;9.178;2022-08-20T08:22:45;22.40;99.90
33793;DHT22;20105;48.764;9.178;2022-08-20T08:25:13;22.40;99.90
33793;DHT22;20105;48.764;9.178;2022-08-20T08:27:39;22.60;99.90
33793;DHT22;20105;48.764;9.178;2022-08-20T08:30:06;22.80;99.90
33793;DHT22;20105;48.764;9.178;2022-08-20T08:32:34;23.00;99.90
33793;DHT22;20105;48.764;9.178;2022-08-20T08:35:03;23.00;99.90
33793;DHT22;20105;48.764;9.178;2022-08-20T08:37:31;23.30;99.90
33793;DHT22;20105;48.764;9.178;2022-08-20T08:39:57;23.50;99.90
33793;DHT22;20105;48.764;9.178;2022-08-20T08:42:27;23.60;99.90
33793;DHT22;20105;48.764;9.178;2022-08-20T08:44:57;23.90;99.90
33793;DHT22;20105;48.764;9.178;2022-08-20T08:47:30;23.90;99.90
33793;DHT22;20105;48.764;9.178;2022-08-20T08:49:57;23.70;99.90
33793;DHT22;20105;48.764;9.178;2022-08-20T08:52:26;23.50;99.90
33793;DHT22;20105;48.764;9.178;2022-08-20T08:54:55;23.30;99.90
33793;DHT22;20105;48.764;9.178;2022-08-20T08:57:21;23.20;99.90
33793;DHT22;20105;48.764;9.178;2022-08-20T08:59:59;23.30;99.90
33793;DHT22;20105;48.764;9.178;2022-08-20T09:02:27;23.30;99.90
33793;DHT22;20105;48.764;9.178;2022-08-20T09:04:56;23.20;99.90
33793;DHT22;20105;48.764;9.178;2022-08-20T09:07:26;23.20;99.90
33793;DHT22;20105;48.764;9.178;2022-08-20T09:09:53;23.20;99.90
33793;DHT22;20105;48.764;9.178;2022-08-20T09:12:22;23.20;99.90
33793;DHT22;20105;48.764;9.178;2022-08-20T09:14:49;23.40;99.90
33793;DHT22;20105;48.764;9.178;2022-08-20T09:17:17;23.40;99.90
33793;DHT22;20105;48.764;9.178;2022-08-20T09:19:43;23.40;99.90
33793;DHT22;20105;48.764;9.178;2022-08-20T09:22:11;23.30;99.90
33793;DHT22;20105;48.764;9.178;2022-08-20T09:24:39;23.40;99.90
33793;DHT22;20105;48.764;9.178;2022-08-20T09:27:04;23.30;99.90
33793;DHT22;20105;48.764;9.178;2022-08-20T09:29:30;23.40;99.90
33793;DHT22;20105;48.764;9.178;2022-08-20T09:32:12;23.30;99.90
33793;DHT22;20105;48.764;9.178;2022-08-20T09:34:40;23.40;99.90
33793;DHT22;20105;48.764;9.178;2022-08-20T09:37:06;23.50;99.90
33793;DHT22;20105;48.764;9.178;2022-08-20T09:39:32;23.50;99.90
33793;DHT22;20105;48.764;9.178;2022-08-20T09:42:19;23.80;99.90
33793;DHT22;20105;48.764;9.178;2022-08-20T09:44:46;23.70;99.90
33793;DHT22;20105;48.764;9.178;2022-08-20T09:47:11;23.60;99.90
33793;DHT22;20105;48.764;9.178;2022-08-20T09:49:37;23.60;99.90
33793;DHT22;20105;48.764;9.178;2022-08-20T09:52:06;23.60;99.90
33793;DHT22;20105;48.764;9.178;2022-08-20T09:54:32;23.70;99.90
33793;DHT22;20105;48.764;9.178;2022-08-20T09:57:04;24.00;99.90
33793;DHT22;20105;48.764;9.178;2022-08-20T09:59:30;23.70;99.90
33793;DHT22;20105;48.764;9.178;2022-08-20T10:01:57;23.60;99.90
33793;DHT22;20105;48.764;9.178;2022-08-20T10:04:23;23.60;99.90
33793;DHT22;20105;48.764;9.178;2022-08-20T10:06:48;23.40;99.90
33793;DHT22;20105;48.764;9.178;2022-08-20T10:09:14;23.10;99.90
33793;DHT22;20105;48.764;9.178;2022-08-20T10:11:39;23.20;99.90
33793;DHT22;20105;48.764;9.178;2022-08-20T10:14:05;23.40;99.90
33793;DHT22;20105;48.764;9.178;2022-08-20T10:16:33;23.50;99.90
33793;DHT22;20105;48.764;9.178;2022-08-20T10:18:59;23.70;99.90
33793;DHT22;20105;48.764;9.178;2022-08-20T10:21:25;23.90;99.70
33793;DHT22;20105;48.764;9.178;2022-08-20T10:23:51;23.80;99.60
33793;DHT22;20105;48.764;9.178;2022-08-20T10:26:16;23.80;99.90
33793;DHT22;20105;48.764;9.178;2022-08-20T10:28:45;23.80;99.90
33793;DHT22;20105;48.764;9.178;2022-08-20T10:31:11;24.00;99.90
33793;DHT22;20105;48.764;9.178;2022-08-20T10:33:38;23.70;99.90
33793;DHT22;20105;48.764;9.178;2022-08-20T10:36:10;23.50;99.90
33793;DHT22;20105;48.764;9.178;2022-08-20T10:38:35;22.90;99.90
33793;DHT22;20105;48.764;9.178;2022-08-20T10:41:01;22.80;99.90
33793;DHT22;20105;48.764;9.178;2022-08-20T10:43:27;23.00;99.90
33793;DHT22;20105;48.764;9.178;2022-08-20T10:45:52;22.90;99.90
33793;DHT22;20105;48.764;9.178;2022-08-20T10:48:19;22.80;99.90
33793;DHT22;20105;48.764;9.178;2022-08-20T10:50:44;22.70;99.90
33793;DHT22;20105;48.764;9.178;2022-08-20T10:53:10;22.70;99.90
33793;DHT22;20105;48.764;9.178;2022-08-20T10:55:37;22.80;99.90
33793;DHT22;20105;48.764;9.178;2022-08-20T10:58:05;22.80;99.90
33793;DHT22;20105;48.764;9.178;2022-08-20T11:00:30;22.80;99.90
33793;DHT22;20105;48.764;9.178;2022-08-20T11:02:56;22.50;99.90
33793;DHT22;20105;48.764;9.178;2022-08-20T11:05:21;22.50;99.90
33793;DHT22;20105;48.764;9.178;2022-08-20T11:07:47;22.70;99.90
33793;DHT22;20105;48.764;9.178;2022-08-20T11:10:13;22.80;99.90
33793;DHT22;20105;48.764;9.178;2022-08-20T11:12:38;22.80;99.90
33793;DHT22;20105;48.764;9.178;2022-08-20T11:15:05;22.90;99.90
33793;DHT22;20105;48.764;9.178;2022-08-20T11:17:32;22.90;99.90
33793;DHT22;20105;48.764;9.178;2022-08-20T11:19:59;23.10;99.90
33793;DHT22;20105;48.764;9.178;2022-08-20T11:22:25;23.00;99.90
33793;DHT22;20105;48.764;9.178;2022-08-20T11:24:52;23.10;99.90
33793;DHT22;20105;48.764;9.178;2022-08-20T11:27:31;23.10;99.90
33793;DHT22;20105;48.764;9.178;2022-08-20T11:29:57;23.10;99.90
33793;DHT22;20105;48.764;9.178;2022-08-20T11:32:23;23.10;99.90
33793;DHT22;20105;48.764;9.178;2022-08-20T11:34:50;23.00;99.90
33793;DHT22;20105;48.764;9.178;2022-08-20T11:37:17;23.10;99.90
33793;DHT22;20105;48.764;9.178;2022-08-20T11:39:43;23.30;99.90
33793;DHT22;20105;48.764;9.178;2022-08-20T11:42:10;23.40;99.90
33793;DHT22;20105;48.764;9.178;2022-08-20T11:44:35;23.50;99.90
33793;DHT22;20105;48.764;9.178;2022-08-20T11:47:05;23.60;99.90
33793;DHT22;20105;48.764;9.178;2022-08-20T11:49:33;23.80;99.90
33793;DHT22;20105;48.764;9.178;2022-08-20T11:51:59;24.00;99.20
33793;DHT22;20105;48.764;9.178;2022-08-20T11:54:25;23.80;99.70
33793;DHT22;20105;48.764;9.178;2022-08-20T11:56:56;23.80;99.30
33793;DHT22;20105;48.764;9.178;2022-08-20T11:59:25;23.80;99.00
33793;DHT22;20105;48.764;9.178;2022-08-20T12:01:52;23.80;99.90
33793;DHT22;20105;48.764;9.178;2022-08-20T12:04:20;23.90;99.90
33793;DHT22;20105;48.764;9.178;2022-08-20T12:06:46;23.90;99.40
33793;DHT22;20105;48.764;9.178;2022-08-20T12:09:12;23.90;99.90
33793;DHT22;20105;48.764;9.178;2022-08-20T12:11:38;24.00;99.80
33793;DHT22;20105;48.764;9.178;2022-08-20T12:14:03;24.00;99.90
33793;DHT22;20105;48.764;9.178;2022-08-20T12:16:30;23.90;99.70
33793;DHT22;20105;48.764;9.178;2022-08-20T12:18:56;23.50;99.70
33793;DHT22;20105;48.764;9.178;2022-08-20T12:21:21;23.60;99.90
33793;DHT22;20105;48.764;9.178;2022-08-20T12:23:47;23.50;99.90
33793;DHT22;20105;48.764;9.178;2022-08-20T12:26:13;23.50;99.90
33793;DHT22;20105;48.764;9.178;2022-08-20T12:28:40;23.50;99.90
33793;DHT22;20105;48.764;9.178;2022-08-20T12:31:06;23.50;99.90
33793;DHT22;20105;48.764;9.178;2022-08-20T12:33:32;23.70;99.90
33793;DHT22;20105;48.764;9.178;2022-08-20T12:36:00;23.80;99.90
33793;DHT22;20105;48.764;9.178;2022-08-20T12:38:26;23.90;99.90
33793;DHT22;20105;48.764;9.178;2022-08-20T12:40:51;24.00;99.90
33793;DHT22;20105;48.764;9.178;2022-08-20T12:43:17;24.00;99.90
33793;DHT22;20105;48.764;9.178;2022-08-20T12:45:42;24.30;99.90
33793;DHT22;20105;48.764;9.178;2022-08-20T12:48:10;24.50;99.90
33793;DHT22;20105;48.764;9.178;2022-08-20T12:50:41;24.80;98.70
33793;DHT22;20105;48.764;9.178;2022-08-20T12:53:09;25.00;98.50
33793;DHT22;20105;48.764;9.178;2022-08-20T12:55:35;25.10;98.40
33793;DHT22;20105;48.764;9.178;2022-08-20T12:58:02;25.00;98.00
33793;DHT22;20105;48.764;9.178;2022-08-20T13:00:34;25.00;98.30
33793;DHT22;20105;48.764;9.178;2022-08-20T13:03:01;24.80;98.10
33793;DHT22;20105;48.764;9.178;2022-08-20T13:05:28;24.60;98.30
33793;DHT22;20105;48.764;9.178;2022-08-20T13:07:54;24.20;99.40
33793;DHT22;20105;48.764;9.178;2022-08-20T13:10:27;23.90;99.90
33793;DHT22;20105;48.764;9.178;2022-08-20T13:12:54;23.70;99.90
33793;DHT22;20105;48.764;9.178;2022-08-20T13:15:20;23.30;99.90
33793;DHT22;20105;48.764;9.178;2022-08-20T13:17:53;22.60;99.90
33793;DHT22;20105;48.764;9.178;2022-08-20T13:20:20;22.20;99.90
33793;DHT22;20105;48.764;9.178;2022-08-20T13:22:46;22.10;99.90
33793;DHT22;20105;48.764;9.178;2022-08-20T13:25:12;22.30;99.90
33793;DHT22;20105;48.764;9.178;2022-08-20T13:27:43;22.60;99.90
33793;DHT22;20105;48.764;9.178;2022-08-20T13:30:11;23.10;99.90
33793;DHT22;20105;48.764;9.178;2022-08-20T13:32:38;23.40;99.90
33793;DHT22;20105;48.764;9.178;2022-08-20T13:35:04;23.60;99.90
33793;DHT22;20105;48.764;9.178;2022-08-20T13:37:30;23.70;99.90
33793;DHT22;20105;48.764;9.178;2022-08-20T13:39:57;23.50;99.90
33793;DHT22;20105;48.764;9.178;2022-08-20T13:42:23;23.50;99.90
33793;DHT22;20105;48.764;9.178;2022-08-20T13:44:48;23.00;99.90
33793;DHT22;20105;48.764;9.178;2022-08-20T13:49:45;22.80;99.90
33793;DHT22;20105;48.764;9.178;2022-08-20T13:52:12;22.40;99.90
33793;DHT22;20105;48.764;9.178;2022-08-20T13:54:38;22.70;99.90
33793;DHT22;20105;48.764;9.178;2022-08-20T13:57:15;23.00;99.90
33793;DHT22;20105;48.764;9.178;2022-08-20T13:59:43;23.70;99.90
33793;DHT22;20105;48.764;9.178;2022-08-20T14:02:10;23.90;99.90
33793;DHT22;20105;48.764;9.178;2022-08-20T14:04:36;23.60;99.90
33793;DHT22;20105;48.764;9.178;2022-08-20T14:07:12;23.40;99.90
33793;DHT22;20105;48.764;9.178;2022-08-20T14:09:42;23.00;99.90
33793;DHT22;20105;48.764;9.178;2022-08-20T14:12:09;23.20;99.90
33793;DHT22;20105;48.764;9.178;2022-08-20T14:14:35;23.20;99.90
33793;DHT22;20105;48.764;9.178;2022-08-20T14:17:14;23.50;99.90
33793;DHT22;20105;48.764;9.178;2022-08-20T14:19:40;23.70;99.90
33793;DHT22;20105;48.764;9.178;2022-08-20T14:22:06;23.90;99.90
33793;DHT22;20105;48.764;9.178;2022-08-20T14:24:31;23.70;99.90
33793;DHT22;20105;48.764;9.178;2022-08-20T14:26:57;23.80;99.90
33793;DHT22;20105;48.764;9.178;2022-08-20T14:29:22;24.10;99.90
33793;DHT22;20105;48.764;9.178;2022-08-20T14:31:49;24.40;99.90
33793;DHT22;20105;48.764;9.178;2022-08-20T14:34:15;25.10;99.90
33793;DHT22;20105;48.764;9.178;2022-08-20T14:36:40;25.10;99.90
33793;DHT22;20105;48.764;9.178;2022-08-20T14:39:06;24.90;99.90
33793;DHT22;20105;48.764;9.178;2022-08-20T14:41:32;24.60;99.90
33793;DHT22;20105;48.764;9.178;2022-08-20T14:43:57;25.00;99.90
33793;DHT22;20105;48.764;9.178;2022-08-20T14:46:23;25.30;99.90
33793;DHT22;20105;48.764;9.178;2022-08-20T14:48:48;25.70;99.90
33793;DHT22;20105;48.764;9.178;2022-08-20T14:51:14;25.70;99.90
33793;DHT22;20105;48.764;9.178;2022-08-20T14:53:39;25.20;99.90
33793;DHT22;20105;48.764;9.178;2022-08-20T14:56:05;24.60;99.90
33793;DHT22;20105;48.764;9.178;2022-08-20T14:58:31;24.20;99.90
33793;DHT22;20105;48.764;9.178;2022-08-20T15:00:57;24.20;99.90
33793;DHT22;20105;48.764;9.178;2022-08-20T15:03:22;24.50;99.90
33793;DHT22;20105;48.764;9.178;2022-08-20T15:05:52;24.80;99.90
33793;DHT22;20105;48.764;9.178;2022-08-20T15:08:18;25.20;99.90
33793;DHT22;20105;48.764;9.178;2022-08-20T15:10:43;25.30;99.90
33793;DHT22;20105;48.764;9.178;2022-08-20T15:13:09;25.10;99.90
33793;DHT22;20105;48.764;9.178;2022-08-20T15:15:35;25.60;99.90
33793;DHT22;20105;48.764;9.178;2022-08-20T15:18:01;26.30;99.90
33793;DHT22;20105;48.764;9.178;2022-08-20T15:20:29;26.70;99.30
33793;DHT22;20105;48.764;9.178;2022-08-20T15:22:55;27.10;97.80
33793;DHT22;20105;48.764;9.178;2022-08-20T15:25:24;26.70;99.10
33793;DHT22;20105;48.764;9.178;2022-08-20T15:27:52;26.70;99.20
33793;DHT22;20105;48.764;9.178;2022-08-20T15:30:21;26.90;98.60
33793;DHT22;20105;48.764;9.178;2022-08-20T15:32:47;26.90;98.60
33793;DHT22;20105;48.764;9.178;2022-08-20T15:35:12;26.90;98.40